Time;durP1;ratioP1;P1;durP2;ratioP2;P2;SDS_P1;SDS_P2;PMS_P1;PMS_P2;Temp;Humidity;BMP_temperature;BMP_pressure;BME280_temperature;BME280_humidity;BME280_pressure;Samples;Min_cycle;Max_cycle;Signal;HPM_P1;HPM_P2
2023/06/28 00:00:13;;;;;;;12.30;4.88;;;15.60;99.90;;;;;;5045002;28;20042;-74
2023/06/28 00:02:39;;;;;;;9.25;4.35;;;15.70;99.90;;;;;;4978049;28;20129;-73
2023/06/28 00:05:07;;;;;;;10.98;4.25;;;15.70;99.90;;;;;;4978116;28;20465;-74
2023/06/28 00:07:33;;;;;;;14.10;3.78;;;15.70;99.90;;;;;;5044838;28;20055;-73
2023/06/28 00:09:59;;;;;;;10.70;3.63;;;15.70;99.90;;;;;;5044889;28;20137;-74
2023/06/28 00:12:26;;;;;;;9.05;3.80;;;15.70;99.90;;;;;;5044763;28;20104;-74
2023/06/28 00:14:56;;;;;;;11.15;3.33;;;15.70;99.90;;;;;;4977972;28;20046;-74
2023/06/28 00:17:27;;;;;;;9.70;3.58;;;15.70;99.90;;;;;;4978014;28;20042;-74
2023/06/28 00:19:59;;;;;;;9.10;3.58;;;15.70;99.90;;;;;;4978570;28;20050;-74
2023/06/28 00:22:30;;;;;;;13.55;4.35;;;15.70;99.90;;;;;;5044697;28;20088;-74
2023/06/28 00:24:56;;;;;;;9.68;3.10;;;15.70;99.90;;;;;;5045126;28;20505;-74
2023/06/28 00:27:22;;;;;;;10.05;3.25;;;15.80;99.90;;;;;;5044863;28;20066;-74
2023/06/28 00:29:48;;;;;;;10.07;2.97;;;15.80;99.90;;;;;;5044770;28;20046;-74
2023/06/28 00:32:13;;;;;;;9.13;3.95;;;15.80;99.90;;;;;;5044908;28;20047;-74
2023/06/28 00:34:39;;;;;;;9.65;4.03;;;15.80;99.90;;;;;;5044667;28;20130;-74
2023/06/28 00:37:05;;;;;;;12.75;3.90;;;15.80;99.90;;;;;;4977778;28;20137;-74
2023/06/28 00:39:31;;;;;;;12.13;4.10;;;15.80;99.90;;;;;;4977699;28;20374;-74
2023/06/28 00:41:57;;;;;;;12.55;5.00;;;15.80;99.90;;;;;;4977623;28;20051;-74
2023/06/28 00:44:23;;;;;;;12.40;5.53;;;15.70;99.90;;;;;;5044857;28;20039;-74
2023/06/28 00:46:49;;;;;;;15.95;4.63;;;15.70;99.90;;;;;;4977723;28;20113;-73
2023/06/28 00:49:16;;;;;;;13.48;4.75;;;15.70;99.90;;;;;;5041276;28;20061;-74
2023/06/28 00:51:42;;;;;;;16.77;5.00;;;15.60;99.90;;;;;;4974299;28;20499;-74
2023/06/28 00:54:07;;;;;;;12.55;5.75;;;15.60;99.90;;;;;;4974353;28;20046;-74
2023/06/28 00:56:34;;;;;;;16.02;5.30;;;15.60;99.90;;;;;;5041674;28;20046;-74
2023/06/28 00:59:02;;;;;;;11.48;5.35;;;15.60;99.90;;;;;;4974247;28;20563;-74
2023/06/28 01:01:28;;;;;;;11.38;5.03;;;15.50;99.90;;;;;;4973928;28;20046;-73
2023/06/28 01:03:55;;;;;;;10.85;4.95;;;15.50;99.90;;;;;;4974244;28;20126;-73
2023/06/28 01:06:22;;;;;;;11.32;4.38;;;15.50;99.90;;;;;;5041418;28;20057;-74
2023/06/28 01:08:49;;;;;;;9.88;3.67;;;15.50;99.90;;;;;;5040832;28;20056;-74
2023/06/28 01:11:16;;;;;;;9.10;3.88;;;15.50;99.90;;;;;;4974637;28;20471;-74
2023/06/28 01:13:41;;;;;;;10.27;4.05;;;15.50;99.90;;;;;;5041019;28;20050;-74
2023/06/28 01:16:07;;;;;;;11.30;4.25;;;15.50;99.90;;;;;;5041151;28;20072;-74
2023/06/28 01:18:33;;;;;;;7.88;4.00;;;15.50;99.90;;;;;;5041055;28;20058;-74
2023/06/28 01:21:07;;;;;;;12.13;4.32;;;15.50;99.90;;;;;;4973920;28;20134;-74
2023/06/28 01:23:33;;;;;;;9.60;3.88;;;15.50;99.90;;;;;;5040728;28;20478;-74
2023/06/28 01:26:03;;;;;;;8.63;4.40;;;15.50;99.90;;;;;;5040811;28;20062;-74
2023/06/28 01:28:32;;;;;;;12.77;4.43;;;15.50;99.90;;;;;;5040827;28;20054;-74
2023/06/28 01:30:59;;;;;;;9.38;3.58;;;15.50;99.90;;;;;;5040678;28;20176;-74
2023/06/28 01:33:26;;;;;;;7.93;3.63;;;15.50;99.90;;;;;;5040930;28;20072;-74
2023/06/28 01:35:53;;;;;;;8.60;3.80;;;15.50;99.90;;;;;;5040627;28;20410;-74
2023/06/28 01:38:20;;;;;;;6.53;3.42;;;15.50;99.90;;;;;;5040900;28;20117;-73
2023/06/28 01:40:49;;;;;;;9.88;3.20;;;15.50;99.90;;;;;;5040402;28;20062;-74
2023/06/28 01:43:15;;;;;;;9.88;3.33;;;15.50;99.90;;;;;;5040676;28;20055;-73
2023/06/28 01:45:41;;;;;;;10.50;3.30;;;15.40;99.90;;;;;;5040686;28;20051;-74
2023/06/28 01:48:06;;;;;;;7.50;2.92;;;15.40;99.90;;;;;;4973430;28;20398;-74
2023/06/28 01:50:32;;;;;;;6.57;2.90;;;15.50;99.90;;;;;;5040205;28;20486;-74
2023/06/28 01:53:00;;;;;;;9.27;3.22;;;15.50;99.90;;;;;;5040635;28;20068;-74
2023/06/28 01:55:26;;;;;;;8.43;2.90;;;15.50;99.90;;;;;;5040409;28;20055;-73
2023/06/28 01:57:52;;;;;;;9.02;3.15;;;15.50;99.90;;;;;;5040324;28;20064;-73
2023/06/28 02:00:18;;;;;;;8.02;2.47;;;15.50;99.90;;;;;;5039688;28;20047;-74
2023/06/28 02:02:44;;;;;;;6.85;3.05;;;15.50;99.90;;;;;;5039914;28;20043;-74
2023/06/28 02:05:09;;;;;;;9.63;3.20;;;15.50;99.90;;;;;;4973294;28;20046;-74
2023/06/28 02:07:35;;;;;;;11.30;3.20;;;15.50;99.90;;;;;;4973512;28;20047;-74
2023/06/28 02:10:04;;;;;;;6.90;2.80;;;15.50;99.90;;;;;;4972875;28;20058;-74
2023/06/28 02:12:29;;;;;;;12.00;3.15;;;15.50;99.90;;;;;;5039744;28;20059;-74
2023/06/28 02:14:55;;;;;;;6.50;2.80;;;15.50;99.90;;;;;;4973208;28;20049;-74
2023/06/28 02:17:21;;;;;;;9.98;3.70;;;15.50;99.90;;;;;;5039811;28;20125;-74
2023/06/28 02:19:48;;;;;;;8.80;3.00;;;15.50;99.90;;;;;;5039702;28;20055;-74
2023/06/28 02:22:14;;;;;;;8.00;2.97;;;15.50;99.90;;;;;;5039601;28;20436;-73
2023/06/28 02:24:40;;;;;;;11.35;3.33;;;15.50;99.90;;;;;;5039795;28;20085;-74
2023/06/28 02:27:06;;;;;;;5.32;2.65;;;15.50;99.90;;;;;;5039635;28;20084;-73
2023/06/28 02:29:31;;;;;;;7.90;3.30;;;15.50;99.90;;;;;;5039835;28;20047;-73
2023/06/28 02:31:57;;;;;;;8.52;2.70;;;15.50;99.90;;;;;;4972787;28;20406;-73
2023/06/28 02:34:23;;;;;;;8.00;3.30;;;15.60;99.90;;;;;;5039728;28;20046;-73
2023/06/28 02:36:49;;;;;;;9.52;2.72;;;15.50;99.90;;;;;;4972834;28;20047;-73
2023/06/28 02:39:14;;;;;;;7.63;2.80;;;15.50;99.90;;;;;;5039592;28;20053;-73
2023/06/28 02:41:40;;;;;;;7.10;2.95;;;15.50;99.90;;;;;;4972775;28;20043;-73
2023/06/28 02:44:05;;;;;;;7.88;2.75;;;15.50;99.90;;;;;;5039473;28;20055;-73
2023/06/28 02:46:31;;;;;;;5.97;3.00;;;15.50;99.90;;;;;;5039241;28;20069;-73
2023/06/28 02:48:57;;;;;;;9.05;3.70;;;15.60;99.90;;;;;;5039509;28;20471;-73
2023/06/28 02:51:22;;;;;;;7.45;3.05;;;15.60;99.90;;;;;;4972603;28;20474;-73
2023/06/28 02:53:48;;;;;;;6.05;3.28;;;15.60;99.90;;;;;;4972345;28;20051;-73
2023/06/28 02:56:15;;;;;;;10.60;3.95;;;15.60;99.90;;;;;;4972580;28;20082;-73
2023/06/28 02:58:41;;;;;;;9.57;4.07;;;15.60;99.90;;;;;;5039211;28;20054;-73
2023/06/28 03:01:07;;;;;;;6.53;3.10;;;15.60;99.90;;;;;;5039117;28;20441;-73
2023/06/28 03:03:34;;;;;;;7.10;3.35;;;15.60;99.90;;;;;;5039159;28;20058;-73
2023/06/28 03:06:00;;;;;;;9.85;3.20;;;15.60;99.90;;;;;;5039124;28;20402;-73
2023/06/28 03:08:27;;;;;;;11.10;3.05;;;15.60;99.90;;;;;;4971879;28;20500;-74
2023/06/28 03:10:52;;;;;;;8.18;3.00;;;15.50;99.90;;;;;;5038612;28;20082;-74
2023/06/28 03:13:18;;;;;;;7.40;3.45;;;15.50;99.90;;;;;;5037999;28;20093;-73
2023/06/28 03:15:44;;;;;;;11.10;3.60;;;15.50;99.90;;;;;;5038515;28;20086;-73
2023/06/28 03:18:09;;;;;;;9.57;3.88;;;15.40;99.90;;;;;;5037530;28;20090;-74
2023/06/28 03:20:35;;;;;;;5.85;3.60;;;15.50;99.90;;;;;;4972016;28;20489;-74
2023/06/28 03:23:03;;;;;;;7.32;3.20;;;15.50;99.90;;;;;;4971904;28;20105;-74
2023/06/28 03:25:29;;;;;;;7.72;3.40;;;15.40;99.90;;;;;;5038920;28;20047;-74
2023/06/28 03:27:54;;;;;;;6.68;3.40;;;15.40;99.90;;;;;;5038738;28;20054;-74
2023/06/28 03:30:20;;;;;;;6.60;3.58;;;15.40;99.90;;;;;;4971889;28;20047;-74
2023/06/28 03:32:46;;;;;;;8.65;3.40;;;15.40;99.90;;;;;;4971905;28;20051;-73
2023/06/28 03:35:11;;;;;;;10.63;3.50;;;15.30;99.90;;;;;;5038374;28;20055;-73
2023/06/28 03:37:37;;;;;;;8.27;3.75;;;15.30;99.90;;;;;;5038353;28;20054;-73
2023/06/28 03:40:04;;;;;;;6.57;3.13;;;15.30;99.90;;;;;;5038284;28;20047;-73
2023/06/28 03:42:30;;;;;;;7.57;3.88;;;15.30;99.90;;;;;;5038212;28;20142;-74
2023/06/28 03:44:55;;;;;;;6.75;3.53;;;15.30;99.90;;;;;;5038618;28;20122;-74
2023/06/28 03:47:21;;;;;;;7.57;3.97;;;15.30;99.90;;;;;;5038519;28;20456;-73
2023/06/28 03:49:47;;;;;;;6.25;3.88;;;15.30;99.90;;;;;;5038273;28;20035;-74
2023/06/28 03:52:13;;;;;;;9.68;4.05;;;15.30;99.90;;;;;;5038221;28;20547;-74
2023/06/28 03:54:38;;;;;;;6.70;3.97;;;15.30;99.90;;;;;;5038482;28;20042;-74
2023/06/28 03:57:04;;;;;;;8.05;3.92;;;15.30;99.90;;;;;;5038224;28;20069;-74
2023/06/28 03:59:30;;;;;;;8.18;4.47;;;15.30;99.90;;;;;;5038377;28;20069;-74
2023/06/28 04:01:56;;;;;;;12.52;4.75;;;15.30;99.90;;;;;;4971498;28;20398;-74
2023/06/28 04:04:22;;;;;;;10.25;4.43;;;15.30;99.90;;;;;;5038420;28;20042;-74
2023/06/28 04:06:48;;;;;;;10.38;4.50;;;15.30;99.90;;;;;;5038348;28;20078;-74
2023/06/28 04:09:15;;;;;;;10.13;3.55;;;15.30;99.90;;;;;;5037969;28;20468;-74
2023/06/28 04:11:41;;;;;;;7.38;3.85;;;15.30;99.90;;;;;;5038054;28;20051;-74
2023/06/28 04:14:07;;;;;;;10.02;3.95;;;15.30;99.90;;;;;;5038186;28;20047;-74
2023/06/28 04:16:33;;;;;;;10.60;3.58;;;15.30;99.90;;;;;;5038215;28;20462;-74
2023/06/28 04:18:59;;;;;;;10.98;3.60;;;15.30;99.90;;;;;;5038223;28;20129;-74
2023/06/28 04:21:26;;;;;;;8.68;3.72;;;15.30;99.90;;;;;;5038312;28;20437;-74
2023/06/28 04:23:51;;;;;;;7.88;3.22;;;15.30;99.90;;;;;;5040152;28;20050;-74
2023/06/28 04:26:19;;;;;;;8.23;3.85;;;15.30;99.90;;;;;;5041945;28;20146;-73
2023/06/28 04:28:45;;;;;;;9.48;4.72;;;15.30;99.90;;;;;;5041637;28;20088;-74
2023/06/28 04:31:10;;;;;;;12.20;3.47;;;15.30;99.90;;;;;;4974527;28;20042;-74
2023/06/28 04:33:36;;;;;;;8.15;3.70;;;15.30;99.90;;;;;;5041545;28;20089;-74
2023/06/28 04:36:02;;;;;;;10.10;3.97;;;15.30;99.90;;;;;;4974402;28;20051;-74
2023/06/28 04:38:31;;;;;;;7.10;4.07;;;15.30;99.90;;;;;;4974589;28;20043;-73
2023/06/28 04:40:56;;;;;;;6.70;3.78;;;15.30;99.90;;;;;;5041648;28;20118;-73
2023/06/28 04:43:23;;;;;;;8.75;3.83;;;15.20;99.90;;;;;;5041640;28;20192;-73
2023/06/28 04:45:48;;;;;;;7.05;3.53;;;15.30;99.90;;;;;;4974398;28;20042;-74
2023/06/28 04:48:14;;;;;;;8.05;3.42;;;15.30;99.90;;;;;;5041210;28;20051;-74
2023/06/28 04:50:40;;;;;;;7.18;3.65;;;15.30;99.90;;;;;;5041310;28;20043;-74
2023/06/28 04:53:06;;;;;;;8.43;3.72;;;15.30;99.90;;;;;;5041312;28;20054;-73
2023/06/28 04:55:32;;;;;;;10.55;3.63;;;15.30;99.90;;;;;;5041167;28;20042;-73
2023/06/28 04:58:07;;;;;;;7.32;3.30;;;15.30;99.90;;;;;;5041288;28;20058;-74
2023/06/28 05:00:33;;;;;;;7.80;3.10;;;15.30;99.90;;;;;;5041219;28;20058;-73
2023/06/28 05:03:02;;;;;;;8.02;3.20;;;15.30;99.90;;;;;;5041094;28;20055;-74
2023/06/28 05:05:29;;;;;;;5.60;3.03;;;15.30;99.90;;;;;;5041074;28;20054;-74
2023/06/28 05:07:55;;;;;;;9.07;3.38;;;15.30;99.90;;;;;;5041172;28;20057;-73
2023/06/28 05:10:23;;;;;;;9.48;3.60;;;15.30;99.90;;;;;;5040732;28;20502;-73
2023/06/28 05:12:51;;;;;;;12.85;4.25;;;15.40;99.90;;;;;;4974136;28;20039;-74
2023/06/28 05:15:18;;;;;;;6.32;3.45;;;15.30;99.90;;;;;;5041148;28;20379;-73
2023/06/28 05:17:44;;;;;;;7.45;4.15;;;15.40;99.90;;;;;;5040790;28;20043;-74
2023/06/28 05:20:10;;;;;;;8.20;3.58;;;15.40;99.90;;;;;;5040735;28;20042;-73
2023/06/28 05:22:43;;;;;;;10.20;3.35;;;15.40;99.90;;;;;;5040620;28;20053;-73
2023/06/28 05:25:08;;;;;;;;;;;15.40;99.90;;;;;;4974292;28;20043;-73
2023/06/28 05:27:34;;;;;;;10.30;4.13;;;15.50;99.90;;;;;;4973736;28;19983;-73
2023/06/28 05:30:00;;;;;;;10.50;4.18;;;15.50;99.90;;;;;;5040688;28;20050;-73
2023/06/28 05:32:25;;;;;;;9.90;3.80;;;15.50;99.90;;;;;;5040749;28;20104;-73
2023/06/28 05:34:51;;;;;;;14.80;4.72;;;15.50;99.90;;;;;;4972839;28;20414;-73
2023/06/28 05:37:16;;;;;;;9.50;4.50;;;15.50;99.90;;;;;;5040576;28;20053;-73
2023/06/28 05:39:43;;;;;;;10.43;4.32;;;15.50;99.90;;;;;;4973457;28;20051;-73
2023/06/28 05:42:08;;;;;;;10.32;4.35;;;15.60;99.90;;;;;;5040196;28;20054;-73
2023/06/28 05:44:34;;;;;;;11.55;4.00;;;15.60;99.90;;;;;;5040395;28;20050;-73
2023/06/28 05:46:59;;;;;;;10.90;4.60;;;15.60;99.90;;;;;;4973630;28;20057;-73
2023/06/28 05:49:25;;;;;;;12.57;4.45;;;15.70;99.90;;;;;;5040546;28;20043;-73
2023/06/28 05:51:51;;;;;;;9.55;4.60;;;15.70;99.90;;;;;;5040014;28;20055;-74
2023/06/28 05:54:16;;;;;;;10.07;4.55;;;15.70;99.90;;;;;;4973510;28;20043;-73
2023/06/28 05:56:43;;;;;;;12.05;4.93;;;15.70;99.90;;;;;;5040202;28;20410;-74
2023/06/28 05:59:09;;;;;;;11.63;5.35;;;15.70;99.90;;;;;;4973439;28;20118;-73
2023/06/28 06:01:34;;;;;;;9.55;4.78;;;15.70;99.90;;;;;;5040072;28;20542;-73
2023/06/28 06:04:00;;;;;;;11.60;4.65;;;15.70;99.90;;;;;;5039922;28;20050;-73
2023/06/28 06:06:26;;;;;;;12.25;5.30;;;15.80;99.90;;;;;;4973191;28;20039;-74
2023/06/28 06:08:51;;;;;;;10.75;5.05;;;15.80;99.90;;;;;;5039586;28;20403;-74
2023/06/28 06:11:19;;;;;;;11.38;5.30;;;15.90;99.90;;;;;;5039640;28;20054;-74
2023/06/28 06:13:44;;;;;;;12.63;5.40;;;15.90;99.90;;;;;;5039618;28;20513;-73
2023/06/28 06:16:10;;;;;;;11.13;5.63;;;15.90;99.90;;;;;;5039608;28;20126;-73
2023/06/28 06:18:39;;;;;;;12.23;5.65;;;15.90;99.90;;;;;;5039749;28;20093;-73
2023/06/28 06:21:05;;;;;;;14.50;5.93;;;15.90;99.90;;;;;;5039457;28;20093;-73
2023/06/28 06:23:31;;;;;;;15.45;5.53;;;15.80;99.90;;;;;;4973054;28;20200;-73
2023/06/28 06:25:56;;;;;;;10.27;5.68;;;15.80;99.90;;;;;;5039460;28;20043;-74
2023/06/28 06:28:22;;;;;;;12.52;5.60;;;15.80;99.90;;;;;;5039592;28;20103;-73
2023/06/28 06:30:47;;;;;;;11.27;5.57;;;15.80;99.90;;;;;;4972690;28;20051;-73
2023/06/28 06:33:13;;;;;;;13.60;6.03;;;15.80;99.90;;;;;;5039242;28;20047;-73
2023/06/28 06:35:39;;;;;;;12.70;5.68;;;15.80;99.90;;;;;;5039697;28;20051;-73
2023/06/28 06:38:04;;;;;;;15.65;6.45;;;15.80;99.90;;;;;;4972848;28;20501;-73
2023/06/28 06:40:30;;;;;;;12.57;6.57;;;15.80;99.90;;;;;;5039323;28;20051;-72
2023/06/28 06:42:55;;;;;;;13.13;6.55;;;15.80;99.90;;;;;;5039362;28;20042;-73
2023/06/28 06:45:21;;;;;;;16.15;6.20;;;15.90;99.90;;;;;;5039208;28;20086;-73
2023/06/28 06:47:47;;;;;;;14.25;6.88;;;15.90;99.90;;;;;;5038226;28;20082;-73
2023/06/28 06:50:13;;;;;;;13.07;6.88;;;15.90;99.90;;;;;;5026112;28;20051;-71
2023/06/28 06:52:39;;;;;;;11.63;6.95;;;15.90;99.90;;;;;;5008332;28;20123;-72
2023/06/28 06:55:05;;;;;;;14.25;7.57;;;16.00;99.90;;;;;;4933856;28;20473;-72
2023/06/28 06:57:31;;;;;;;12.63;7.57;;;16.00;99.90;;;;;;4999298;28;20551;-72
2023/06/28 06:59:56;;;;;;;14.65;7.55;;;16.00;99.90;;;;;;4999506;28;20062;-72
2023/06/28 07:02:22;;;;;;;14.43;7.72;;;16.00;99.90;;;;;;4999078;28;20091;-72
2023/06/28 07:04:50;;;;;;;13.90;8.23;;;16.10;99.90;;;;;;4999245;28;20054;-72
2023/06/28 07:07:16;;;;;;;14.65;8.15;;;16.10;99.90;;;;;;4933894;29;20119;-71
2023/06/28 07:09:42;;;;;;;12.77;7.30;;;16.10;99.90;;;;;;4933382;29;20063;-71
2023/06/28 07:12:08;;;;;;;14.02;8.43;;;16.10;99.90;;;;;;4933473;28;20052;-72
2023/06/28 07:14:34;;;;;;;15.45;8.27;;;16.10;99.90;;;;;;4999103;28;20086;-72
2023/06/28 07:17:00;;;;;;;13.38;7.80;;;16.10;99.90;;;;;;4998930;28;20087;-72
2023/06/28 07:19:25;;;;;;;19.23;8.98;;;16.20;99.90;;;;;;4998909;28;20467;-72
2023/06/28 07:21:51;;;;;;;13.13;8.10;;;16.10;99.90;;;;;;4999024;28;20043;-72
2023/06/28 07:24:16;;;;;;;15.52;7.88;;;16.20;99.90;;;;;;4933423;29;20040;-72
2023/06/28 07:26:42;;;;;;;13.10;8.25;;;16.10;99.90;;;;;;4998913;28;20418;-71
2023/06/28 07:29:07;;;;;;;14.13;8.40;;;16.10;99.90;;;;;;4998767;28;20115;-71
2023/06/28 07:31:33;;;;;;;15.25;8.57;;;16.10;99.90;;;;;;4999061;28;20105;-71
2023/06/28 07:34:04;;;;;;;13.48;8.02;;;16.10;99.90;;;;;;4998836;28;20137;-71
2023/06/28 07:36:30;;;;;;;17.45;9.20;;;16.10;99.90;;;;;;4933185;29;20122;-71
2023/06/28 07:38:56;;;;;;;16.63;8.20;;;16.20;99.90;;;;;;4999034;28;20079;-71
2023/06/28 07:41:21;;;;;;;17.23;8.95;;;16.20;99.90;;;;;;4998798;28;20458;-71
2023/06/28 07:43:47;;;;;;;16.00;7.75;;;16.20;99.90;;;;;;4933370;29;20047;-71
2023/06/28 07:46:13;;;;;;;16.90;9.00;;;16.20;99.90;;;;;;4933327;29;20035;-75
2023/06/28 07:48:38;;;;;;;15.60;8.90;;;16.10;99.90;;;;;;4998584;28;20070;-72
2023/06/28 07:51:05;;;;;;;16.15;8.20;;;16.30;99.90;;;;;;4933341;29;20079;-72
2023/06/28 07:53:31;;;;;;;13.90;8.75;;;16.20;99.90;;;;;;5014149;28;20047;-72
2023/06/28 07:55:57;;;;;;;16.23;9.15;;;16.30;99.90;;;;;;4971311;28;20111;-72
2023/06/28 07:58:22;;;;;;;21.88;10.23;;;16.40;99.90;;;;;;5039304;28;20536;-72
2023/06/28 08:00:48;;;;;;;16.52;8.90;;;16.30;99.90;;;;;;4975197;28;20047;-72
2023/06/28 08:03:14;;;;;;;16.58;9.07;;;16.40;99.90;;;;;;5042245;28;20398;-72
2023/06/28 08:05:39;;;;;;;15.07;9.45;;;16.30;99.90;;;;;;5041818;28;20075;-71
2023/06/28 08:08:06;;;;;;;13.80;8.90;;;16.40;99.90;;;;;;5041795;28;20061;-71
2023/06/28 08:10:32;;;;;;;14.20;8.98;;;16.30;99.90;;;;;;5041609;28;20082;-71
2023/06/28 08:12:58;;;;;;;16.73;9.43;;;16.20;99.90;;;;;;5041815;28;20046;-72
2023/06/28 08:15:23;;;;;;;18.10;8.90;;;16.20;99.90;;;;;;4974902;28;20046;-71
2023/06/28 08:17:49;;;;;;;18.90;9.95;;;16.30;99.90;;;;;;5041715;28;20109;-71
2023/06/28 08:20:15;;;;;;;18.65;10.05;;;16.40;99.90;;;;;;5041788;28;20090;-73
2023/06/28 08:22:40;;;;;;;16.73;9.80;;;16.40;99.90;;;;;;5041445;28;20055;-72
2023/06/28 08:25:06;;;;;;;17.33;9.13;;;16.40;99.90;;;;;;4974554;28;20042;-72
2023/06/28 08:27:32;;;;;;;20.15;9.93;;;16.40;99.90;;;;;;4974250;28;20405;-72
2023/06/28 08:29:58;;;;;;;20.08;10.15;;;16.40;99.90;;;;;;5041446;28;20051;-72
2023/06/28 08:32:24;;;;;;;17.33;10.65;;;16.40;99.90;;;;;;5041288;28;20490;-72
2023/06/28 08:34:50;;;;;;;16.63;10.13;;;16.40;99.90;;;;;;5041577;28;20406;-72
2023/06/28 08:37:16;;;;;;;23.63;11.50;;;16.30;99.90;;;;;;5041297;28;20058;-72
2023/06/28 08:39:42;;;;;;;17.55;11.60;;;16.30;99.90;;;;;;5041224;28;20456;-72
2023/06/28 08:42:08;;;;;;;22.42;11.35;;;16.30;99.90;;;;;;4974359;28;20466;-72
2023/06/28 08:44:35;;;;;;;18.70;11.00;;;16.30;99.90;;;;;;5041078;28;20453;-72
2023/06/28 08:47:02;;;;;;;20.95;10.95;;;16.30;99.90;;;;;;5041281;28;20136;-72
2023/06/28 08:49:28;;;;;;;18.20;11.25;;;16.40;99.90;;;;;;5041238;28;20058;-73
2023/06/28 08:51:57;;;;;;;20.88;11.07;;;16.40;99.90;;;;;;5041657;28;20043;-73
2023/06/28 08:54:27;;;;;;;22.25;12.95;;;16.40;99.90;;;;;;5041296;28;20051;-72
2023/06/28 08:56:56;;;;;;;23.30;11.95;;;16.40;99.90;;;;;;4974134;28;20085;-72
2023/06/28 08:59:22;;;;;;;17.45;11.60;;;16.40;99.90;;;;;;4974198;28;20151;-73
2023/06/28 09:01:50;;;;;;;17.70;11.20;;;16.50;99.90;;;;;;4973776;28;20046;-71
2023/06/28 09:04:17;;;;;;;22.08;11.32;;;16.50;99.90;;;;;;4973940;28;20129;-71
2023/06/28 09:06:44;;;;;;;25.77;12.80;;;16.50;99.90;;;;;;5040701;28;20500;-72
2023/06/28 09:09:11;;;;;;;19.85;11.63;;;16.50;99.90;;;;;;5040300;28;20193;-71
2023/06/28 09:11:38;;;;;;;18.75;12.38;;;16.50;99.90;;;;;;5040673;28;20047;-71
2023/06/28 09:14:04;;;;;;;20.25;11.60;;;16.60;99.90;;;;;;5040779;28;20402;-72
2023/06/28 09:16:30;;;;;;;18.75;12.23;;;16.60;99.90;;;;;;4973888;28;20051;-72
2023/06/28 09:18:56;;;;;;;19.40;12.23;;;16.70;99.90;;;;;;5040761;28;20070;-72
2023/06/28 09:21:26;;;;;;;18.10;12.00;;;16.70;99.90;;;;;;5040261;28;20346;-72
2023/06/28 09:23:53;;;;;;;20.35;12.73;;;16.70;99.90;;;;;;5040848;28;20054;-72
2023/06/28 09:26:20;;;;;;;18.88;12.50;;;16.80;99.90;;;;;;4973854;28;20054;-71
2023/06/28 09:28:46;;;;;;;19.10;11.75;;;16.70;99.90;;;;;;4973712;28;20055;-72
2023/06/28 09:31:18;;;;;;;17.27;12.40;;;16.70;99.90;;;;;;5040229;28;20070;-71
2023/06/28 09:33:43;;;;;;;19.00;12.40;;;16.80;99.90;;;;;;5040495;28;20081;-74
2023/06/28 09:36:10;;;;;;;20.02;12.40;;;16.80;99.90;;;;;;5040366;28;20325;-73
2023/06/28 09:38:43;;;;;;;22.45;13.25;;;16.90;99.90;;;;;;5040435;28;20038;-72
2023/06/28 09:41:09;;;;;;;21.08;13.68;;;16.90;99.90;;;;;;5039959;28;20474;-72
2023/06/28 09:43:35;;;;;;;21.38;13.10;;;17.00;99.90;;;;;;4973275;28;20126;-72
2023/06/28 09:46:13;;;;;;;23.17;14.35;;;17.00;99.90;;;;;;5039891;28;20134;-73
2023/06/28 09:48:44;;;;;;;20.98;13.32;;;17.10;99.90;;;;;;5040508;28;20124;-72
2023/06/28 09:51:11;;;;;;;20.13;12.88;;;17.10;99.90;;;;;;4973057;28;20407;-72
2023/06/28 09:53:50;;;;;;;26.65;13.60;;;17.00;99.90;;;;;;5040206;28;20047;-73
2023/06/28 09:56:16;;;;;;;22.13;13.27;;;17.10;99.90;;;;;;4973320;28;20051;-72
2023/06/28 09:58:48;;;;;;;19.60;12.43;;;17.00;99.90;;;;;;5039837;28;20101;-73
2023/06/28 10:01:17;;;;;;;19.88;12.57;;;17.00;99.90;;;;;;4973033;28;20050;-73
2023/06/28 10:03:44;;;;;;;19.60;12.30;;;17.10;99.90;;;;;;5012284;28;20053;-73
2023/06/28 10:06:10;;;;;;;19.25;12.30;;;17.10;99.90;;;;;;4953530;28;20451;-73
2023/06/28 10:08:39;;;;;;;15.73;12.07;;;17.10;99.90;;;;;;5019769;28;20086;-73
2023/06/28 10:11:12;;;;;;;17.75;12.93;;;17.00;99.90;;;;;;4953544;29;20059;-72
2023/06/28 10:13:41;;;;;;;19.02;12.85;;;17.00;99.90;;;;;;5019866;28;20043;-73
2023/06/28 10:16:13;;;;;;;17.20;11.85;;;17.00;99.90;;;;;;5019565;28;20496;-73
2023/06/28 10:18:39;;;;;;;18.40;12.65;;;17.10;99.90;;;;;;5019700;28;20096;-73
2023/06/28 10:21:07;;;;;;;16.15;12.10;;;17.00;99.90;;;;;;5016189;28;20051;-72
2023/06/28 10:23:36;;;;;;;15.80;12.23;;;17.10;99.90;;;;;;5026700;28;20054;-72
2023/06/28 10:26:06;;;;;;;18.05;12.45;;;17.00;99.90;;;;;;5039483;28;20050;-72
2023/06/28 10:28:35;;;;;;;19.60;12.82;;;17.00;99.90;;;;;;5039277;28;20509;-71
2023/06/28 10:31:03;;;;;;;20.42;12.95;;;17.00;99.90;;;;;;5039136;28;20092;-72
2023/06/28 10:33:31;;;;;;;17.13;11.70;;;17.00;99.90;;;;;;5039700;28;20063;-71
2023/06/28 10:36:01;;;;;;;17.20;11.60;;;17.10;99.90;;;;;;4972599;28;20047;-71
2023/06/28 10:38:31;;;;;;;18.10;11.55;;;17.10;99.90;;;;;;4972223;28;20168;-71
2023/06/28 10:40:57;;;;;;;15.73;11.20;;;17.20;99.90;;;;;;5038880;28;20082;-74
2023/06/28 10:43:25;;;;;;;17.80;12.85;;;17.20;99.90;;;;;;4972310;28;20140;-71
2023/06/28 10:45:52;;;;;;;17.80;12.15;;;17.10;99.90;;;;;;4972563;28;20039;-74
2023/06/28 10:48:22;;;;;;;21.42;12.10;;;17.10;99.90;;;;;;5038985;28;20482;-72
2023/06/28 10:50:49;;;;;;;17.30;12.05;;;17.10;99.90;;;;;;4972502;28;20046;-72
2023/06/28 10:53:24;;;;;;;15.85;11.55;;;17.20;99.90;;;;;;5039124;28;20097;-71
2023/06/28 10:56:11;;;;;;;16.45;12.88;;;17.20;99.90;;;;;;5039104;28;20478;-71
2023/06/28 10:58:45;;;;;;;15.38;11.55;;;17.30;99.90;;;;;;5038691;28;20051;-71
2023/06/28 11:01:12;;;;;;;18.58;12.02;;;17.30;99.90;;;;;;5038626;28;20100;-71
2023/06/28 11:03:39;;;;;;;18.13;12.90;;;17.30;99.90;;;;;;5038702;28;20050;-72
2023/06/28 11:06:05;;;;;;;18.55;12.75;;;17.30;99.90;;;;;;5038749;28;20038;-74
2023/06/28 11:08:41;;;;;;;16.70;12.57;;;17.30;99.90;;;;;;5038535;28;20069;-74
2023/06/28 11:11:09;;;;;;;17.23;11.75;;;17.30;99.90;;;;;;5038556;28;20434;-74
2023/06/28 11:13:42;;;;;;;17.20;12.43;;;17.30;99.90;;;;;;5038752;28;20051;-75
2023/06/28 11:16:18;;;;;;;;;;;17.30;99.90;;;;;;5039099;28;20046;-75
2023/06/28 11:18:44;;;;;;;20.50;13.25;;;17.40;99.90;;;;;;4972146;28;20038;-75
2023/06/28 11:21:20;;;;;;;23.20;13.88;;;17.40;99.90;;;;;;5038282;28;20065;-75
2023/06/28 11:23:47;;;;;;;21.52;13.63;;;17.40;99.90;;;;;;5038740;28;20531;-75
2023/06/28 11:26:18;;;;;;;18.95;13.63;;;17.40;99.90;;;;;;4971969;28;20047;-72
2023/06/28 11:28:49;;;;;;;21.20;14.02;;;17.50;99.90;;;;;;5038152;28;20059;-71
2023/06/28 11:31:24;;;;;;;22.77;15.23;;;17.60;99.90;;;;;;5038505;28;20074;-72
2023/06/28 11:33:52;;;;;;;22.65;15.13;;;17.60;99.90;;;;;;5037860;28;20050;-72
2023/06/28 11:36:21;;;;;;;21.27;14.75;;;17.50;99.90;;;;;;5038559;28;20127;-72
2023/06/28 11:38:46;;;;;;;24.17;16.35;;;17.50;99.90;;;;;;5038651;28;20129;-71
2023/06/28 11:41:15;;;;;;;21.23;15.23;;;17.50;99.90;;;;;;4971544;28;20138;-72
2023/06/28 11:43:43;;;;;;;22.88;14.40;;;17.50;99.90;;;;;;5038192;28;20075;-73
2023/06/28 11:46:14;;;;;;;21.48;14.98;;;17.60;99.90;;;;;;4971426;28;20554;-72
2023/06/28 11:48:39;;;;;;;23.13;15.52;;;17.70;99.90;;;;;;5038310;28;20047;-71
2023/06/28 11:51:06;;;;;;;21.90;14.85;;;17.70;99.90;;;;;;4971439;28;20058;-71
2023/06/28 11:53:31;;;;;;;24.38;16.20;;;17.70;99.90;;;;;;5038022;28;20043;-71
2023/06/28 11:55:58;;;;;;;24.25;14.50;;;17.70;99.90;;;;;;5038185;28;20051;-71
2023/06/28 11:58:31;;;;;;;25.13;14.38;;;17.70;99.90;;;;;;4971272;28;20451;-72
2023/06/28 12:00:58;;;;;;;25.90;15.65;;;17.80;99.90;;;;;;5037983;28;20402;-72
2023/06/28 12:03:36;;;;;;;19.38;14.07;;;17.80;99.90;;;;;;4971397;28;20051;-72
2023/06/28 12:06:07;;;;;;;21.17;14.50;;;17.80;99.90;;;;;;5037996;28;20051;-72
2023/06/28 12:08:38;;;;;;;19.85;14.55;;;17.90;99.90;;;;;;4971298;28;20047;-72
2023/06/28 12:11:15;;;;;;;20.25;14.75;;;17.90;99.90;;;;;;5037961;28;20487;-72
2023/06/28 12:13:43;;;;;;;19.85;13.75;;;18.00;99.90;;;;;;5037991;28;20093;-72
2023/06/28 12:16:21;;;;;;;19.50;13.63;;;18.10;99.90;;;;;;5037931;28;20453;-72
2023/06/28 12:19:01;;;;;;;20.65;13.88;;;18.10;99.90;;;;;;5038051;28;20476;-72
2023/06/28 12:21:28;;;;;;;18.13;12.80;;;18.10;99.90;;;;;;4971201;28;20050;-72
2023/06/28 12:24:24;;;;;;;16.80;12.52;;;18.10;99.90;;;;;;5037997;28;20051;-72
2023/06/28 12:27:06;;;;;;;18.58;12.50;;;18.10;99.90;;;;;;4970992;28;20054;-72
2023/06/28 12:29:35;;;;;;;16.57;12.33;;;18.10;99.90;;;;;;5038188;28;20126;-72
2023/06/28 12:32:06;;;;;;;17.35;13.40;;;18.10;99.90;;;;;;4971046;28;20077;-72
2023/06/28 12:34:34;;;;;;;16.83;12.15;;;18.20;99.90;;;;;;5037858;28;20046;-72
2023/06/28 12:37:11;;;;;;;16.15;13.38;;;18.20;99.90;;;;;;4970856;28;20403;-72